sensor_id;sensor_type;location;lat;lon;timestamp;pressure;altitude;pressure_sealevel;temperature
62611;BMP280;48683;48.084;17.272;2022-08-19T00:00:13;99611.31;;;24.42
62611;BMP280;48683;48.084;17.272;2022-08-19T00:02:40;99617.28;;;24.35
62611;BMP280;48683;48.084;17.272;2022-08-19T00:05:06;99629.22;;;24.32
62611;BMP280;48683;48.084;17.272;2022-08-19T00:07:32;99630.22;;;24.29
62611;BMP280;48683;48.084;17.272;2022-08-19T00:09:57;99630.25;;;24.35
62611;BMP280;48683;48.084;17.272;2022-08-19T00:12:22;99628.50;;;24.37
62611;BMP280;48683;48.084;17.272;2022-08-19T00:14:48;99618.75;;;24.36
62611;BMP280;48683;48.084;17.272;2022-08-19T00:17:13;99614.53;;;24.35
62611;BMP280;48683;48.084;17.272;2022-08-19T00:19:38;99611.06;;;24.35
62611;BMP280;48683;48.084;17.272;2022-08-19T00:22:04;99607.53;;;24.23
62611;BMP280;48683;48.084;17.272;2022-08-19T00:24:30;99612.75;;;24.27
62611;BMP280;48683;48.084;17.272;2022-08-19T00:26:55;99621.97;;;24.24
62611;BMP280;48683;48.084;17.272;2022-08-19T00:29:22;99615.22;;;24.19
62611;BMP280;48683;48.084;17.272;2022-08-19T00:31:47;99614.16;;;24.11
62611;BMP280;48683;48.084;17.272;2022-08-19T00:34:13;99606.13;;;24.02
62611;BMP280;48683;48.084;17.272;2022-08-19T00:36:39;99612.56;;;23.93
62611;BMP280;48683;48.084;17.272;2022-08-19T00:39:04;99609.09;;;23.98
62611;BMP280;48683;48.084;17.272;2022-08-19T00:41:30;99608.06;;;23.90
62611;BMP280;48683;48.084;17.272;2022-08-19T00:43:56;99610.03;;;23.84
62611;BMP280;48683;48.084;17.272;2022-08-19T00:46:22;99597.09;;;23.85
62611;BMP280;48683;48.084;17.272;2022-08-19T00:48:47;99600.84;;;23.87
62611;BMP280;48683;48.084;17.272;2022-08-19T00:51:12;99605.31;;;23.85
62611;BMP280;48683;48.084;17.272;2022-08-19T00:53:37;99611.78;;;23.87
62611;BMP280;48683;48.084;17.272;2022-08-19T00:56:04;99602.88;;;23.98
62611;BMP280;48683;48.084;17.272;2022-08-19T00:58:32;99597.19;;;24.07
62611;BMP280;48683;48.084;17.272;2022-08-19T01:00:58;99603.63;;;23.98
62611;BMP280;48683;48.084;17.272;2022-08-19T01:03:23;99608.06;;;23.90
62611;BMP280;48683;48.084;17.272;2022-08-19T01:05:49;99603.53;;;23.82
62611;BMP280;48683;48.084;17.272;2022-08-19T01:08:16;99607.75;;;23.77
62611;BMP280;48683;48.084;17.272;2022-08-19T01:10:43;99601.03;;;23.78
62611;BMP280;48683;48.084;17.272;2022-08-19T01:13:09;99591.50;;;23.68
62611;BMP280;48683;48.084;17.272;2022-08-19T01:15:39;99599.44;;;23.66
62611;BMP280;48683;48.084;17.272;2022-08-19T01:18:06;99599.75;;;23.74
62611;BMP280;48683;48.084;17.272;2022-08-19T01:20:32;99593.59;;;23.90
62611;BMP280;48683;48.084;17.272;2022-08-19T01:22:58;99589.88;;;23.87
62611;BMP280;48683;48.084;17.272;2022-08-19T01:25:25;99583.16;;;23.88
62611;BMP280;48683;48.084;17.272;2022-08-19T01:27:51;99588.81;;;23.79
62611;BMP280;48683;48.084;17.272;2022-08-19T01:30:19;99589.53;;;23.74
62611;BMP280;48683;48.084;17.272;2022-08-19T01:32:45;99576.31;;;23.67
62611;BMP280;48683;48.084;17.272;2022-08-19T01:35:11;99587.59;;;23.80
62611;BMP280;48683;48.084;17.272;2022-08-19T01:37:44;99595.34;;;23.87
62611;BMP280;48683;48.084;17.272;2022-08-19T01:40:09;99590.63;;;23.88
62611;BMP280;48683;48.084;17.272;2022-08-19T01:42:35;99589.13;;;23.87
62611;BMP280;48683;48.084;17.272;2022-08-19T01:45:00;99585.34;;;23.79
62611;BMP280;48683;48.084;17.272;2022-08-19T01:47:25;99589.00;;;23.70
62611;BMP280;48683;48.084;17.272;2022-08-19T01:49:50;99588.41;;;23.49
62611;BMP280;48683;48.084;17.272;2022-08-19T01:52:16;99591.63;;;23.48
62611;BMP280;48683;48.084;17.272;2022-08-19T01:54:41;99598.84;;;23.51
62611;BMP280;48683;48.084;17.272;2022-08-19T01:57:07;99598.44;;;23.63
62611;BMP280;48683;48.084;17.272;2022-08-19T01:59:33;99591.41;;;23.51
62611;BMP280;48683;48.084;17.272;2022-08-19T02:02:01;99586.56;;;23.41
62611;BMP280;48683;48.084;17.272;2022-08-19T02:04:27;99587.78;;;23.34
62611;BMP280;48683;48.084;17.272;2022-08-19T02:06:52;99580.50;;;23.31
62611;BMP280;48683;48.084;17.272;2022-08-19T02:09:17;99597.31;;;23.44
62611;BMP280;48683;48.084;17.272;2022-08-19T02:11:42;99595.34;;;23.50
62611;BMP280;48683;48.084;17.272;2022-08-19T02:14:08;99602.94;;;23.35
62611;BMP280;48683;48.084;17.272;2022-08-19T02:16:33;99615.97;;;23.14
62611;BMP280;48683;48.084;17.272;2022-08-19T02:18:59;99616.41;;;23.07
62611;BMP280;48683;48.084;17.272;2022-08-19T02:21:27;99627.25;;;23.22
62611;BMP280;48683;48.084;17.272;2022-08-19T02:23:52;99620.56;;;23.29
62611;BMP280;48683;48.084;17.272;2022-08-19T02:26:18;99634.09;;;23.38
62611;BMP280;48683;48.084;17.272;2022-08-19T02:28:44;99631.31;;;23.32
62611;BMP280;48683;48.084;17.272;2022-08-19T02:31:13;99634.72;;;23.27
62611;BMP280;48683;48.084;17.272;2022-08-19T02:33:40;99624.81;;;23.30
62611;BMP280;48683;48.084;17.272;2022-08-19T02:36:05;99620.34;;;23.32
62611;BMP280;48683;48.084;17.272;2022-08-19T02:38:31;99621.16;;;23.38
62611;BMP280;48683;48.084;17.272;2022-08-19T02:40:57;99619.41;;;23.41
62611;BMP280;48683;48.084;17.272;2022-08-19T02:43:23;99617.44;;;23.41
62611;BMP280;48683;48.084;17.272;2022-08-19T02:45:49;99626.03;;;23.29
62611;BMP280;48683;48.084;17.272;2022-08-19T02:48:16;99623.00;;;23.21
62611;BMP280;48683;48.084;17.272;2022-08-19T02:50:42;99627.25;;;23.22
62611;BMP280;48683;48.084;17.272;2022-08-19T02:53:08;99637.66;;;23.18
62611;BMP280;48683;48.084;17.272;2022-08-19T02:55:33;99628.84;;;23.08
62611;BMP280;48683;48.084;17.272;2022-08-19T02:57:58;99636.84;;;23.12
62611;BMP280;48683;48.084;17.272;2022-08-19T03:00:24;99623.69;;;23.16
62611;BMP280;48683;48.084;17.272;2022-08-19T03:02:50;99623.88;;;23.07
62611;BMP280;48683;48.084;17.272;2022-08-19T03:05:15;99627.84;;;23.06
62611;BMP280;48683;48.084;17.272;2022-08-19T03:07:40;99621.41;;;23.09
62611;BMP280;48683;48.084;17.272;2022-08-19T03:10:06;99628.91;;;23.14
62611;BMP280;48683;48.084;17.272;2022-08-19T03:12:34;99629.13;;;23.10
62611;BMP280;48683;48.084;17.272;2022-08-19T03:15:00;99621.06;;;23.01
62611;BMP280;48683;48.084;17.272;2022-08-19T03:17:25;99614.28;;;22.91
62611;BMP280;48683;48.084;17.272;2022-08-19T03:19:50;99628.84;;;22.83
62611;BMP280;48683;48.084;17.272;2022-08-19T03:22:16;99626.88;;;22.83
62611;BMP280;48683;48.084;17.272;2022-08-19T03:24:41;99632.06;;;22.81
62611;BMP280;48683;48.084;17.272;2022-08-19T03:27:06;99638.16;;;22.91
62611;BMP280;48683;48.084;17.272;2022-08-19T03:29:32;99639.03;;;22.82
62611;BMP280;48683;48.084;17.272;2022-08-19T03:31:58;99634.81;;;22.81
62611;BMP280;48683;48.084;17.272;2022-08-19T03:34:26;99629.28;;;22.76
62611;BMP280;48683;48.084;17.272;2022-08-19T03:36:53;99629.41;;;22.66
62611;BMP280;48683;48.084;17.272;2022-08-19T03:39:19;99633.09;;;22.63
62611;BMP280;48683;48.084;17.272;2022-08-19T03:41:45;99634.44;;;22.68
62611;BMP280;48683;48.084;17.272;2022-08-19T03:44:15;99636.03;;;22.80
62611;BMP280;48683;48.084;17.272;2022-08-19T03:46:40;99641.03;;;22.82
62611;BMP280;48683;48.084;17.272;2022-08-19T03:49:06;99640.69;;;22.74
62611;BMP280;48683;48.084;17.272;2022-08-19T03:51:36;99649.22;;;22.82
62611;BMP280;48683;48.084;17.272;2022-08-19T03:54:02;99656.69;;;22.81
62611;BMP280;48683;48.084;17.272;2022-08-19T03:56:28;99644.19;;;22.75
62611;BMP280;48683;48.084;17.272;2022-08-19T03:58:56;99643.75;;;22.61
62611;BMP280;48683;48.084;17.272;2022-08-19T04:01:24;99646.72;;;22.58
62611;BMP280;48683;48.084;17.272;2022-08-19T04:03:51;99635.50;;;22.56
62611;BMP280;48683;48.084;17.272;2022-08-19T04:08:43;99645.16;;;22.51
62611;BMP280;48683;48.084;17.272;2022-08-19T04:11:09;99648.31;;;22.44
62611;BMP280;48683;48.084;17.272;2022-08-19T04:13:35;99656.34;;;22.53
62611;BMP280;48683;48.084;17.272;2022-08-19T04:16:00;99661.41;;;22.60
62611;BMP280;48683;48.084;17.272;2022-08-19T04:18:25;99647.25;;;22.62
62611;BMP280;48683;48.084;17.272;2022-08-19T04:20:51;99655.25;;;22.65
62611;BMP280;48683;48.084;17.272;2022-08-19T04:23:16;99654.13;;;22.72
62611;BMP280;48683;48.084;17.272;2022-08-19T04:25:43;99655.69;;;22.79
62611;BMP280;48683;48.084;17.272;2022-08-19T04:28:09;99661.19;;;22.84
62611;BMP280;48683;48.084;17.272;2022-08-19T04:30:42;99658.78;;;22.92
62611;BMP280;48683;48.084;17.272;2022-08-19T04:33:08;99661.59;;;22.97
62611;BMP280;48683;48.084;17.272;2022-08-19T04:35:40;99658.41;;;23.04
62611;BMP280;48683;48.084;17.272;2022-08-19T04:38:06;99654.16;;;23.03
62611;BMP280;48683;48.084;17.272;2022-08-19T04:40:31;99672.59;;;23.03
62611;BMP280;48683;48.084;17.272;2022-08-19T04:43:15;99657.19;;;23.05
62611;BMP280;48683;48.084;17.272;2022-08-19T04:45:41;99662.72;;;23.11
62611;BMP280;48683;48.084;17.272;2022-08-19T04:48:07;99651.72;;;23.05
62611;BMP280;48683;48.084;17.272;2022-08-19T04:50:32;99658.53;;;23.15
62611;BMP280;48683;48.084;17.272;2022-08-19T04:52:58;99663.59;;;23.23
62611;BMP280;48683;48.084;17.272;2022-08-19T04:55:23;99672.66;;;23.34
62611;BMP280;48683;48.084;17.272;2022-08-19T04:57:50;99665.78;;;23.44
62611;BMP280;48683;48.084;17.272;2022-08-19T05:00:16;99660.13;;;23.53
62611;BMP280;48683;48.084;17.272;2022-08-19T05:02:41;99668.44;;;23.64
62611;BMP280;48683;48.084;17.272;2022-08-19T05:05:06;99663.03;;;23.76
62611;BMP280;48683;48.084;17.272;2022-08-19T05:07:32;99675.28;;;23.86
62611;BMP280;48683;48.084;17.272;2022-08-19T05:09:57;99664.91;;;23.95
62611;BMP280;48683;48.084;17.272;2022-08-19T05:12:22;99669.94;;;24.02
62611;BMP280;48683;48.084;17.272;2022-08-19T05:14:48;99672.47;;;24.11
62611;BMP280;48683;48.084;17.272;2022-08-19T05:17:14;99669.06;;;24.22
62611;BMP280;48683;48.084;17.272;2022-08-19T05:19:39;99668.38;;;24.33
62611;BMP280;48683;48.084;17.272;2022-08-19T05:22:24;99663.19;;;24.46
62611;BMP280;48683;48.084;17.272;2022-08-19T05:25:00;99667.97;;;24.56
62611;BMP280;48683;48.084;17.272;2022-08-19T05:27:26;99670.22;;;24.64
62611;BMP280;48683;48.084;17.272;2022-08-19T05:29:51;99663.53;;;24.70
62611;BMP280;48683;48.084;17.272;2022-08-19T05:32:16;99659.31;;;24.80
62611;BMP280;48683;48.084;17.272;2022-08-19T05:34:41;99663.81;;;24.83
62611;BMP280;48683;48.084;17.272;2022-08-19T05:37:07;99661.34;;;24.85
62611;BMP280;48683;48.084;17.272;2022-08-19T05:39:33;99672.09;;;24.94
62611;BMP280;48683;48.084;17.272;2022-08-19T05:42:00;99676.59;;;25.03
62611;BMP280;48683;48.084;17.272;2022-08-19T05:44:27;99677.84;;;25.02
62611;BMP280;48683;48.084;17.272;2022-08-19T05:46:52;99676.88;;;25.11
62611;BMP280;48683;48.084;17.272;2022-08-19T05:49:19;99675.13;;;25.13
62611;BMP280;48683;48.084;17.272;2022-08-19T05:51:44;99669.38;;;25.22
62611;BMP280;48683;48.084;17.272;2022-08-19T05:54:10;99680.88;;;25.37
62611;BMP280;48683;48.084;17.272;2022-08-19T05:56:38;99673.66;;;25.45
62611;BMP280;48683;48.084;17.272;2022-08-19T05:59:04;99681.41;;;25.52
62611;BMP280;48683;48.084;17.272;2022-08-19T06:01:34;99688.66;;;25.61
62611;BMP280;48683;48.084;17.272;2022-08-19T06:04:00;99696.91;;;25.78
62611;BMP280;48683;48.084;17.272;2022-08-19T06:06:25;99697.88;;;25.91
62611;BMP280;48683;48.084;17.272;2022-08-19T06:08:50;99709.09;;;26.05
62611;BMP280;48683;48.084;17.272;2022-08-19T06:11:20;99719.59;;;26.06
62611;BMP280;48683;48.084;17.272;2022-08-19T06:13:47;99729.34;;;26.13
62611;BMP280;48683;48.084;17.272;2022-08-19T06:16:14;99733.34;;;26.28
62611;BMP280;48683;48.084;17.272;2022-08-19T06:18:47;99727.31;;;26.41
62611;BMP280;48683;48.084;17.272;2022-08-19T06:21:13;99726.78;;;26.48
62611;BMP280;48683;48.084;17.272;2022-08-19T06:23:39;99718.25;;;26.52
62611;BMP280;48683;48.084;17.272;2022-08-19T06:26:05;99725.22;;;26.58
62611;BMP280;48683;48.084;17.272;2022-08-19T06:28:30;99718.97;;;26.58
62611;BMP280;48683;48.084;17.272;2022-08-19T06:30:57;99726.47;;;26.63
62611;BMP280;48683;48.084;17.272;2022-08-19T06:33:23;99721.44;;;26.67
62611;BMP280;48683;48.084;17.272;2022-08-19T06:35:48;99722.41;;;26.75
62611;BMP280;48683;48.084;17.272;2022-08-19T06:38:13;99726.91;;;26.78
62611;BMP280;48683;48.084;17.272;2022-08-19T06:40:38;99740.41;;;26.87
62611;BMP280;48683;48.084;17.272;2022-08-19T06:43:04;99740.81;;;27.02
62611;BMP280;48683;48.084;17.272;2022-08-19T06:45:29;99746.19;;;27.24
62611;BMP280;48683;48.084;17.272;2022-08-19T06:47:55;99736.97;;;27.22
62611;BMP280;48683;48.084;17.272;2022-08-19T06:50:21;99739.69;;;27.27
62611;BMP280;48683;48.084;17.272;2022-08-19T06:52:46;99750.72;;;27.27
62611;BMP280;48683;48.084;17.272;2022-08-19T06:55:12;99740.47;;;27.22
62611;BMP280;48683;48.084;17.272;2022-08-19T06:57:37;99739.47;;;27.20
62611;BMP280;48683;48.084;17.272;2022-08-19T07:00:04;99734.69;;;27.20
62611;BMP280;48683;48.084;17.272;2022-08-19T07:02:30;99738.94;;;27.27
62611;BMP280;48683;48.084;17.272;2022-08-19T07:04:55;99743.38;;;27.35
62611;BMP280;48683;48.084;17.272;2022-08-19T07:07:23;99747.06;;;27.44
62611;BMP280;48683;48.084;17.272;2022-08-19T07:09:49;99753.63;;;27.46
62611;BMP280;48683;48.084;17.272;2022-08-19T07:12:15;99755.34;;;27.49
62611;BMP280;48683;48.084;17.272;2022-08-19T07:14:40;99743.56;;;27.49
62611;BMP280;48683;48.084;17.272;2022-08-19T07:17:07;99763.81;;;27.57
62611;BMP280;48683;48.084;17.272;2022-08-19T07:19:32;99761.53;;;27.61
62611;BMP280;48683;48.084;17.272;2022-08-19T07:21:58;99773.00;;;27.65
62611;BMP280;48683;48.084;17.272;2022-08-19T07:24:26;99765.41;;;27.76
62611;BMP280;48683;48.084;17.272;2022-08-19T07:26:52;99765.81;;;27.86
62611;BMP280;48683;48.084;17.272;2022-08-19T07:29:18;99766.25;;;27.96
62611;BMP280;48683;48.084;17.272;2022-08-19T07:31:44;99760.16;;;28.08
62611;BMP280;48683;48.084;17.272;2022-08-19T07:34:10;99758.53;;;28.18
62611;BMP280;48683;48.084;17.272;2022-08-19T07:36:37;99738.09;;;28.33
62611;BMP280;48683;48.084;17.272;2022-08-19T07:39:05;99733.06;;;28.31
62611;BMP280;48683;48.084;17.272;2022-08-19T07:41:31;99728.22;;;28.37
62611;BMP280;48683;48.084;17.272;2022-08-19T07:43:58;99742.56;;;28.36
62611;BMP280;48683;48.084;17.272;2022-08-19T07:46:24;99746.13;;;28.30
62611;BMP280;48683;48.084;17.272;2022-08-19T07:48:49;99741.06;;;28.35
62611;BMP280;48683;48.084;17.272;2022-08-19T07:51:19;99726.75;;;28.36
62611;BMP280;48683;48.084;17.272;2022-08-19T07:53:45;99727.47;;;28.37
62611;BMP280;48683;48.084;17.272;2022-08-19T07:56:14;99729.25;;;28.58
62611;BMP280;48683;48.084;17.272;2022-08-19T07:58:41;99721.13;;;28.66
62611;BMP280;48683;48.084;17.272;2022-08-19T08:01:08;99718.25;;;28.77
62611;BMP280;48683;48.084;17.272;2022-08-19T08:03:35;99715.13;;;28.86
62611;BMP280;48683;48.084;17.272;2022-08-19T08:06:19;99700.41;;;28.97
62611;BMP280;48683;48.084;17.272;2022-08-19T08:09:04;99702.50;;;29.09
62611;BMP280;48683;48.084;17.272;2022-08-19T08:11:42;99690.91;;;29.11
62611;BMP280;48683;48.084;17.272;2022-08-19T08:14:13;99689.34;;;29.15
62611;BMP280;48683;48.084;17.272;2022-08-19T08:16:38;99680.97;;;29.21
62611;BMP280;48683;48.084;17.272;2022-08-19T08:19:04;99682.09;;;29.31
62611;BMP280;48683;48.084;17.272;2022-08-19T08:21:30;99681.91;;;29.42
62611;BMP280;48683;48.084;17.272;2022-08-19T08:23:55;99678.22;;;29.53
62611;BMP280;48683;48.084;17.272;2022-08-19T08:26:21;99675.41;;;29.72
62611;BMP280;48683;48.084;17.272;2022-08-19T08:28:46;99675.13;;;29.88
62611;BMP280;48683;48.084;17.272;2022-08-19T08:31:13;99673.06;;;29.76
62611;BMP280;48683;48.084;17.272;2022-08-19T08:33:38;99670.06;;;29.74
62611;BMP280;48683;48.084;17.272;2022-08-19T08:36:06;99677.88;;;30.01
62611;BMP280;48683;48.084;17.272;2022-08-19T08:38:32;99675.31;;;30.16
62611;BMP280;48683;48.084;17.272;2022-08-19T08:41:05;99670.78;;;30.19
62611;BMP280;48683;48.084;17.272;2022-08-19T08:43:38;99678.53;;;30.34
62611;BMP280;48683;48.084;17.272;2022-08-19T08:49:02;99677.22;;;30.61
62611;BMP280;48683;48.084;17.272;2022-08-19T08:51:37;99680.44;;;30.86
62611;BMP280;48683;48.084;17.272;2022-08-19T08:54:07;99681.59;;;30.90
62611;BMP280;48683;48.084;17.272;2022-08-19T08:56:32;99688.53;;;30.97
62611;BMP280;48683;48.084;17.272;2022-08-19T08:59:00;99683.28;;;31.06
62611;BMP280;48683;48.084;17.272;2022-08-19T09:01:26;99672.22;;;31.06
62611;BMP280;48683;48.084;17.272;2022-08-19T09:03:52;99674.53;;;31.16
62611;BMP280;48683;48.084;17.272;2022-08-19T09:09:09;99669.56;;;31.22
62611;BMP280;48683;48.084;17.272;2022-08-19T09:16:35;99675.63;;;31.54
62611;BMP280;48683;48.084;17.272;2022-08-19T09:19:03;99671.97;;;31.59
62611;BMP280;48683;48.084;17.272;2022-08-19T09:21:29;99669.44;;;31.69
62611;BMP280;48683;48.084;17.272;2022-08-19T09:23:54;99670.38;;;31.71
62611;BMP280;48683;48.084;17.272;2022-08-19T09:26:20;99671.56;;;31.83
62611;BMP280;48683;48.084;17.272;2022-08-19T09:28:46;99671.94;;;32.08
62611;BMP280;48683;48.084;17.272;2022-08-19T09:31:12;99665.53;;;32.21
62611;BMP280;48683;48.084;17.272;2022-08-19T09:33:38;99658.00;;;32.29
62611;BMP280;48683;48.084;17.272;2022-08-19T09:36:06;99655.47;;;32.46
62611;BMP280;48683;48.084;17.272;2022-08-19T09:38:32;99654.72;;;32.45
62611;BMP280;48683;48.084;17.272;2022-08-19T09:41:01;99658.91;;;32.67
62611;BMP280;48683;48.084;17.272;2022-08-19T09:43:27;99653.41;;;32.98
62611;BMP280;48683;48.084;17.272;2022-08-19T09:45:53;99649.78;;;33.18
62611;BMP280;48683;48.084;17.272;2022-08-19T09:48:18;99652.50;;;33.10
62611;BMP280;48683;48.084;17.272;2022-08-19T09:50:45;99641.75;;;32.84
62611;BMP280;48683;48.084;17.272;2022-08-19T09:53:10;99656.94;;;32.90
62611;BMP280;48683;48.084;17.272;2022-08-19T09:55:35;99645.69;;;33.26
62611;BMP280;48683;48.084;17.272;2022-08-19T09:58:01;99649.34;;;33.06
62611;BMP280;48683;48.084;17.272;2022-08-19T10:00:26;99636.25;;;33.37
62611;BMP280;48683;48.084;17.272;2022-08-19T10:02:51;99637.53;;;33.44
62611;BMP280;48683;48.084;17.272;2022-08-19T10:05:17;99633.25;;;33.42
62611;BMP280;48683;48.084;17.272;2022-08-19T10:08:01;99646.06;;;33.53
62611;BMP280;48683;48.084;17.272;2022-08-19T10:10:26;99641.78;;;33.82
62611;BMP280;48683;48.084;17.272;2022-08-19T10:12:51;99644.41;;;33.65
62611;BMP280;48683;48.084;17.272;2022-08-19T10:15:17;99652.53;;;33.56
62611;BMP280;48683;48.084;17.272;2022-08-19T10:17:45;99657.94;;;33.76
62611;BMP280;48683;48.084;17.272;2022-08-19T10:20:10;99656.97;;;33.81
62611;BMP280;48683;48.084;17.272;2022-08-19T10:22:36;99658.66;;;33.54
62611;BMP280;48683;48.084;17.272;2022-08-19T10:25:02;99665.72;;;33.32
62611;BMP280;48683;48.084;17.272;2022-08-19T10:27:28;99666.66;;;33.50
62611;BMP280;48683;48.084;17.272;2022-08-19T10:29:53;99670.91;;;33.44
62611;BMP280;48683;48.084;17.272;2022-08-19T10:32:18;99672.94;;;33.43
62611;BMP280;48683;48.084;17.272;2022-08-19T10:34:44;99675.72;;;33.20
62611;BMP280;48683;48.084;17.272;2022-08-19T10:37:09;99680.78;;;32.78
62611;BMP280;48683;48.084;17.272;2022-08-19T10:39:35;99681.53;;;32.79
62611;BMP280;48683;48.084;17.272;2022-08-19T10:42:07;99683.09;;;32.52
62611;BMP280;48683;48.084;17.272;2022-08-19T10:44:35;99682.72;;;32.55
62611;BMP280;48683;48.084;17.272;2022-08-19T10:47:00;99682.78;;;32.63
62611;BMP280;48683;48.084;17.272;2022-08-19T10:49:26;99685.94;;;32.67
62611;BMP280;48683;48.084;17.272;2022-08-19T10:51:51;99686.97;;;32.48
62611;BMP280;48683;48.084;17.272;2022-08-19T10:54:34;99683.56;;;32.35
62611;BMP280;48683;48.084;17.272;2022-08-19T10:57:19;99679.75;;;32.53
62611;BMP280;48683;48.084;17.272;2022-08-19T10:59:44;99677.22;;;32.63
62611;BMP280;48683;48.084;17.272;2022-08-19T11:02:10;99675.72;;;32.62
62611;BMP280;48683;48.084;17.272;2022-08-19T11:04:37;99687.78;;;32.64
62611;BMP280;48683;48.084;17.272;2022-08-19T11:07:03;99680.22;;;32.72
62611;BMP280;48683;48.084;17.272;2022-08-19T11:09:28;99681.56;;;32.86
62611;BMP280;48683;48.084;17.272;2022-08-19T11:11:53;99676.00;;;32.94
62611;BMP280;48683;48.084;17.272;2022-08-19T11:14:20;99687.50;;;32.90
62611;BMP280;48683;48.084;17.272;2022-08-19T11:16:46;99679.72;;;32.97
62611;BMP280;48683;48.084;17.272;2022-08-19T11:19:12;99681.44;;;33.07
62611;BMP280;48683;48.084;17.272;2022-08-19T11:21:40;99680.09;;;32.93
62611;BMP280;48683;48.084;17.272;2022-08-19T11:24:07;99683.63;;;33.01
62611;BMP280;48683;48.084;17.272;2022-08-19T11:26:33;99681.75;;;32.96
62611;BMP280;48683;48.084;17.272;2022-08-19T11:28:58;99685.97;;;32.74
62611;BMP280;48683;48.084;17.272;2022-08-19T11:31:26;99690.91;;;32.61
62611;BMP280;48683;48.084;17.272;2022-08-19T11:33:51;99691.28;;;32.65
62611;BMP280;48683;48.084;17.272;2022-08-19T11:36:20;99681.88;;;32.68
62611;BMP280;48683;48.084;17.272;2022-08-19T11:38:46;99681.84;;;32.60
62611;BMP280;48683;48.084;17.272;2022-08-19T11:41:13;99686.78;;;32.54
62611;BMP280;48683;48.084;17.272;2022-08-19T11:43:39;99690.38;;;32.34
62611;BMP280;48683;48.084;17.272;2022-08-19T11:46:05;99679.69;;;32.38
62611;BMP280;48683;48.084;17.272;2022-08-19T11:48:31;99680.22;;;32.29
62611;BMP280;48683;48.084;17.272;2022-08-19T11:50:57;99677.56;;;32.23
62611;BMP280;48683;48.084;17.272;2022-08-19T11:53:22;99679.56;;;32.15
62611;BMP280;48683;48.084;17.272;2022-08-19T11:55:47;99678.06;;;32.14
62611;BMP280;48683;48.084;17.272;2022-08-19T11:58:13;99681.75;;;32.09
62611;BMP280;48683;48.084;17.272;2022-08-19T12:00:39;99660.84;;;32.08
62611;BMP280;48683;48.084;17.272;2022-08-19T12:03:05;99668.97;;;32.06
62611;BMP280;48683;48.084;17.272;2022-08-19T12:05:30;99682.84;;;32.06
62611;BMP280;48683;48.084;17.272;2022-08-19T12:07:55;99706.66;;;32.01
62611;BMP280;48683;48.084;17.272;2022-08-19T12:10:21;99729.53;;;31.66
62611;BMP280;48683;48.084;17.272;2022-08-19T12:12:46;99754.41;;;31.25
62611;BMP280;48683;48.084;17.272;2022-08-19T12:15:12;99781.94;;;31.23
62611;BMP280;48683;48.084;17.272;2022-08-19T12:17:37;99777.31;;;31.04
62611;BMP280;48683;48.084;17.272;2022-08-19T12:20:03;99767.94;;;30.81
62611;BMP280;48683;48.084;17.272;2022-08-19T12:22:29;99765.47;;;30.12
62611;BMP280;48683;48.084;17.272;2022-08-19T12:24:54;99724.25;;;29.50
62611;BMP280;48683;48.084;17.272;2022-08-19T12:27:20;99731.91;;;28.69
62611;BMP280;48683;48.084;17.272;2022-08-19T12:29:45;99769.91;;;28.09
62611;BMP280;48683;48.084;17.272;2022-08-19T12:32:10;99778.72;;;28.32
62611;BMP280;48683;48.084;17.272;2022-08-19T12:34:35;99799.13;;;28.48
62611;BMP280;48683;48.084;17.272;2022-08-19T12:37:03;99803.66;;;28.45
62611;BMP280;48683;48.084;17.272;2022-08-19T12:39:29;99815.50;;;28.64
62611;BMP280;48683;48.084;17.272;2022-08-19T12:41:56;99809.00;;;28.38
62611;BMP280;48683;48.084;17.272;2022-08-19T12:44:21;99810.16;;;28.23
62611;BMP280;48683;48.084;17.272;2022-08-19T12:46:47;99814.75;;;28.15
62611;BMP280;48683;48.084;17.272;2022-08-19T12:49:13;99820.25;;;28.15
62611;BMP280;48683;48.084;17.272;2022-08-19T12:51:39;99813.56;;;28.35
62611;BMP280;48683;48.084;17.272;2022-08-19T12:54:04;99800.91;;;28.45
62611;BMP280;48683;48.084;17.272;2022-08-19T12:56:29;99791.47;;;28.35
62611;BMP280;48683;48.084;17.272;2022-08-19T12:58:56;99790.44;;;28.38
62611;BMP280;48683;48.084;17.272;2022-08-19T13:01:21;99793.38;;;28.46
62611;BMP280;48683;48.084;17.272;2022-08-19T13:03:46;99782.28;;;28.51
62611;BMP280;48683;48.084;17.272;2022-08-19T13:06:12;99800.50;;;28.36
62611;BMP280;48683;48.084;17.272;2022-08-19T13:08:38;99814.66;;;28.21
62611;BMP280;48683;48.084;17.272;2022-08-19T13:11:10;99810.91;;;28.24
62611;BMP280;48683;48.084;17.272;2022-08-19T13:13:37;99805.44;;;28.18
62611;BMP280;48683;48.084;17.272;2022-08-19T13:16:02;99796.00;;;28.08
62611;BMP280;48683;48.084;17.272;2022-08-19T13:18:28;99805.69;;;27.85
62611;BMP280;48683;48.084;17.272;2022-08-19T13:20:53;99798.56;;;27.65
62611;BMP280;48683;48.084;17.272;2022-08-19T13:23:18;99798.59;;;27.60
62611;BMP280;48683;48.084;17.272;2022-08-19T13:25:43;99795.16;;;27.54
62611;BMP280;48683;48.084;17.272;2022-08-19T13:28:09;99790.59;;;27.62
62611;BMP280;48683;48.084;17.272;2022-08-19T13:30:34;99790.19;;;27.47
62611;BMP280;48683;48.084;17.272;2022-08-19T13:33:18;99795.69;;;27.47
62611;BMP280;48683;48.084;17.272;2022-08-19T13:35:45;99794.94;;;27.46
62611;BMP280;48683;48.084;17.272;2022-08-19T13:38:10;99802.66;;;27.53
62611;BMP280;48683;48.084;17.272;2022-08-19T13:40:36;99818.94;;;27.51
62611;BMP280;48683;48.084;17.272;2022-08-19T13:43:02;99809.44;;;27.52
62611;BMP280;48683;48.084;17.272;2022-08-19T13:45:28;99808.72;;;27.46
62611;BMP280;48683;48.084;17.272;2022-08-19T13:47:55;99808.72;;;27.41
62611;BMP280;48683;48.084;17.272;2022-08-19T13:50:22;99801.75;;;27.34
62611;BMP280;48683;48.084;17.272;2022-08-19T13:52:50;99806.00;;;27.35
62611;BMP280;48683;48.084;17.272;2022-08-19T13:55:15;99800.25;;;27.33
62611;BMP280;48683;48.084;17.272;2022-08-19T13:57:41;99811.59;;;27.18
62611;BMP280;48683;48.084;17.272;2022-08-19T14:00:12;99814.34;;;27.18
62611;BMP280;48683;48.084;17.272;2022-08-19T14:02:38;99803.19;;;26.94
62611;BMP280;48683;48.084;17.272;2022-08-19T14:05:05;99803.00;;;26.75